sensor_id;sensor_type;location;lat;lon;timestamp;P1;durP1;ratioP1;P2;durP2;ratioP2
18503;SDS011;9381;54.244;10.074;2022-09-09T00:03:17;44.83;;;32.53;;
18503;SDS011;9381;54.244;10.074;2022-09-09T00:08:24;46.03;;;32.90;;
18503;SDS011;9381;54.244;10.074;2022-09-09T00:14:10;53.80;;;37.23;;
18503;SDS011;9381;54.244;10.074;2022-09-09T00:24:42;49.00;;;33.97;;
18503;SDS011;9381;54.244;10.074;2022-09-09T00:29:46;45.97;;;33.70;;
18503;SDS011;9381;54.244;10.074;2022-09-09T00:34:52;45.80;;;33.33;;
18503;SDS011;9381;54.244;10.074;2022-09-09T00:39:57;44.53;;;32.80;;
18503;SDS011;9381;54.244;10.074;2022-09-09T00:45:26;46.90;;;34.50;;
18503;SDS011;9381;54.244;10.074;2022-09-09T00:55:46;43.03;;;31.13;;
18503;SDS011;9381;54.244;10.074;2022-09-09T01:00:56;43.47;;;31.83;;
18503;SDS011;9381;54.244;10.074;2022-09-09T01:16:49;43.13;;;30.20;;
18503;SDS011;9381;54.244;10.074;2022-09-09T01:22:02;44.60;;;31.83;;
18503;SDS011;9381;54.244;10.074;2022-09-09T01:27:12;41.17;;;30.23;;
18503;SDS011;9381;54.244;10.074;2022-09-09T01:37:45;46.20;;;31.03;;
18503;SDS011;9381;54.244;10.074;2022-09-09T01:42:46;48.57;;;30.13;;
18503;SDS011;9381;54.244;10.074;2022-09-09T01:47:46;40.83;;;29.27;;
18503;SDS011;9381;54.244;10.074;2022-09-09T01:52:50;45.73;;;30.67;;
18503;SDS011;9381;54.244;10.074;2022-09-09T02:03:07;46.97;;;32.10;;
18503;SDS011;9381;54.244;10.074;2022-09-09T02:08:18;57.77;;;35.20;;
18503;SDS011;9381;54.244;10.074;2022-09-09T02:13:23;40.70;;;27.77;;
18503;SDS011;9381;54.244;10.074;2022-09-09T02:18:30;48.67;;;31.80;;
18503;SDS011;9381;54.244;10.074;2022-09-09T02:23:53;52.53;;;32.00;;
18503;SDS011;9381;54.244;10.074;2022-09-09T02:28:57;60.40;;;36.37;;
18503;SDS011;9381;54.244;10.074;2022-09-09T02:33:59;56.43;;;33.83;;
18503;SDS011;9381;54.244;10.074;2022-09-09T02:39:01;55.73;;;33.93;;
18503;SDS011;9381;54.244;10.074;2022-09-09T02:44:11;57.17;;;33.20;;
18503;SDS011;9381;54.244;10.074;2022-09-09T02:49:16;66.20;;;37.30;;
18503;SDS011;9381;54.244;10.074;2022-09-09T02:59:33;79.37;;;42.53;;
18503;SDS011;9381;54.244;10.074;2022-09-09T03:04:34;80.43;;;41.63;;
18503;SDS011;9381;54.244;10.074;2022-09-09T03:09:34;83.53;;;45.03;;
18503;SDS011;9381;54.244;10.074;2022-09-09T03:14:34;72.30;;;42.03;;
18503;SDS011;9381;54.244;10.074;2022-09-09T03:19:35;75.77;;;40.17;;
18503;SDS011;9381;54.244;10.074;2022-09-09T03:24:36;105.30;;;44.97;;
18503;SDS011;9381;54.244;10.074;2022-09-09T03:29:36;80.37;;;41.23;;
18503;SDS011;9381;54.244;10.074;2022-09-09T03:34:36;72.85;;;41.10;;
18503;SDS011;9381;54.244;10.074;2022-09-09T03:39:40;78.10;;;41.20;;
18503;SDS011;9381;54.244;10.074;2022-09-09T03:44:40;85.88;;;42.47;;
18503;SDS011;9381;54.244;10.074;2022-09-09T03:49:41;78.63;;;40.90;;
18503;SDS011;9381;54.244;10.074;2022-09-09T03:54:42;76.43;;;40.07;;
18503;SDS011;9381;54.244;10.074;2022-09-09T03:59:42;73.95;;;39.83;;
18503;SDS011;9381;54.244;10.074;2022-09-09T04:04:43;73.13;;;39.77;;
18503;SDS011;9381;54.244;10.074;2022-09-09T04:09:43;77.75;;;39.58;;
18503;SDS011;9381;54.244;10.074;2022-09-09T04:14:44;73.27;;;40.03;;
18503;SDS011;9381;54.244;10.074;2022-09-09T04:19:44;83.07;;;42.80;;
18503;SDS011;9381;54.244;10.074;2022-09-09T04:24:44;74.15;;;40.55;;
18503;SDS011;9381;54.244;10.074;2022-09-09T04:29:45;76.10;;;39.73;;
18503;SDS011;9381;54.244;10.074;2022-09-09T04:34:45;73.57;;;40.70;;
18503;SDS011;9381;54.244;10.074;2022-09-09T04:39:47;72.53;;;37.80;;
18503;SDS011;9381;54.244;10.074;2022-09-09T04:44:47;75.43;;;40.77;;
18503;SDS011;9381;54.244;10.074;2022-09-09T04:49:48;64.93;;;36.80;;
18503;SDS011;9381;54.244;10.074;2022-09-09T04:54:48;73.20;;;39.93;;
18503;SDS011;9381;54.244;10.074;2022-09-09T04:59:48;80.23;;;43.40;;
18503;SDS011;9381;54.244;10.074;2022-09-09T05:04:49;75.97;;;40.50;;
18503;SDS011;9381;54.244;10.074;2022-09-09T05:09:49;67.17;;;38.20;;
18503;SDS011;9381;54.244;10.074;2022-09-09T05:14:49;73.38;;;40.20;;
18503;SDS011;9381;54.244;10.074;2022-09-09T05:19:50;66.47;;;39.53;;
18503;SDS011;9381;54.244;10.074;2022-09-09T05:24:50;72.97;;;40.43;;
18503;SDS011;9381;54.244;10.074;2022-09-09T05:29:51;62.00;;;37.33;;
18503;SDS011;9381;54.244;10.074;2022-09-09T05:34:51;63.87;;;37.83;;
18503;SDS011;9381;54.244;10.074;2022-09-09T05:39:52;64.10;;;36.57;;
18503;SDS011;9381;54.244;10.074;2022-09-09T05:44:53;68.83;;;38.33;;
18503;SDS011;9381;54.244;10.074;2022-09-09T05:49:54;66.60;;;37.63;;
18503;SDS011;9381;54.244;10.074;2022-09-09T05:54:55;80.63;;;40.23;;
18503;SDS011;9381;54.244;10.074;2022-09-09T05:59:56;70.07;;;38.47;;
18503;SDS011;9381;54.244;10.074;2022-09-09T06:04:57;81.47;;;42.07;;
18503;SDS011;9381;54.244;10.074;2022-09-09T06:09:57;76.83;;;40.50;;
18503;SDS011;9381;54.244;10.074;2022-09-09T06:14:58;79.60;;;39.93;;
18503;SDS011;9381;54.244;10.074;2022-09-09T06:19:59;78.47;;;38.93;;
18503;SDS011;9381;54.244;10.074;2022-09-09T06:25:00;75.00;;;38.70;;
18503;SDS011;9381;54.244;10.074;2022-09-09T06:30:01;67.87;;;35.67;;
18503;SDS011;9381;54.244;10.074;2022-09-09T06:35:02;81.03;;;38.77;;
18503;SDS011;9381;54.244;10.074;2022-09-09T06:40:03;69.80;;;37.80;;
18503;SDS011;9381;54.244;10.074;2022-09-09T06:45:04;77.80;;;39.87;;
18503;SDS011;9381;54.244;10.074;2022-09-09T06:50:04;74.10;;;38.93;;
18503;SDS011;9381;54.244;10.074;2022-09-09T06:55:08;70.73;;;38.10;;
18503;SDS011;9381;54.244;10.074;2022-09-09T07:00:08;74.43;;;37.47;;
18503;SDS011;9381;54.244;10.074;2022-09-09T07:05:09;68.20;;;36.97;;
18503;SDS011;9381;54.244;10.074;2022-09-09T07:10:10;60.00;;;34.53;;
18503;SDS011;9381;54.244;10.074;2022-09-09T07:15:11;55.47;;;33.97;;
18503;SDS011;9381;54.244;10.074;2022-09-09T07:20:11;57.40;;;34.43;;
18503;SDS011;9381;54.244;10.074;2022-09-09T07:25:12;56.33;;;34.50;;
18503;SDS011;9381;54.244;10.074;2022-09-09T07:30:14;55.03;;;34.33;;
18503;SDS011;9381;54.244;10.074;2022-09-09T07:35:14;56.67;;;33.37;;
18503;SDS011;9381;54.244;10.074;2022-09-09T07:40:15;51.30;;;33.23;;
18503;SDS011;9381;54.244;10.074;2022-09-09T07:45:15;51.22;;;31.83;;
18503;SDS011;9381;54.244;10.074;2022-09-09T07:50:15;43.17;;;29.63;;
18503;SDS011;9381;54.244;10.074;2022-09-09T07:55:16;47.70;;;32.43;;
18503;SDS011;9381;54.244;10.074;2022-09-09T08:00:16;43.78;;;30.55;;
18503;SDS011;9381;54.244;10.074;2022-09-09T08:05:18;39.57;;;28.33;;
18503;SDS011;9381;54.244;10.074;2022-09-09T08:10:19;39.03;;;27.58;;
18503;SDS011;9381;54.244;10.074;2022-09-09T08:15:19;36.25;;;26.50;;
18503;SDS011;9381;54.244;10.074;2022-09-09T08:20:19;42.00;;;27.47;;
18503;SDS011;9381;54.244;10.074;2022-09-09T08:25:19;35.10;;;24.63;;
18503;SDS011;9381;54.244;10.074;2022-09-09T08:30:20;32.37;;;25.27;;
18503;SDS011;9381;54.244;10.074;2022-09-09T08:35:20;30.90;;;23.90;;
18503;SDS011;9381;54.244;10.074;2022-09-09T08:40:22;31.77;;;25.30;;
18503;SDS011;9381;54.244;10.074;2022-09-09T08:45:31;30.60;;;24.53;;
18503;SDS011;9381;54.244;10.074;2022-09-09T08:50:43;32.43;;;25.27;;
18503;SDS011;9381;54.244;10.074;2022-09-09T08:55:48;30.70;;;27.33;;
18503;SDS011;9381;54.244;10.074;2022-09-09T09:00:57;34.67;;;28.77;;
18503;SDS011;9381;54.244;10.074;2022-09-09T09:11:37;34.90;;;28.93;;
18503;SDS011;9381;54.244;10.074;2022-09-09T09:16:41;30.57;;;27.33;;
18503;SDS011;9381;54.244;10.074;2022-09-09T09:27:40;25.63;;;22.93;;
18503;SDS011;9381;54.244;10.074;2022-09-09T09:32:50;25.23;;;22.73;;
18503;SDS011;9381;54.244;10.074;2022-09-09T09:38:08;22.40;;;20.00;;
18503;SDS011;9381;54.244;10.074;2022-09-09T09:43:36;22.40;;;20.13;;
18503;SDS011;9381;54.244;10.074;2022-09-09T09:48:37;20.47;;;18.33;;
18503;SDS011;9381;54.244;10.074;2022-09-09T09:53:38;18.73;;;15.80;;
18503;SDS011;9381;54.244;10.074;2022-09-09T10:03:50;16.43;;;14.60;;
18503;SDS011;9381;54.244;10.074;2022-09-09T10:08:52;15.07;;;11.40;;
18503;SDS011;9381;54.244;10.074;2022-09-09T10:13:56;11.53;;;9.63;;
18503;SDS011;9381;54.244;10.074;2022-09-09T10:19:05;9.37;;;8.47;;
18503;SDS011;9381;54.244;10.074;2022-09-09T10:24:29;7.17;;;6.37;;
18503;SDS011;9381;54.244;10.074;2022-09-09T10:35:09;5.93;;;4.90;;
18503;SDS011;9381;54.244;10.074;2022-09-09T10:40:43;3.43;;;3.10;;
18503;SDS011;9381;54.244;10.074;2022-09-09T10:50:56;5.80;;;3.17;;
18503;SDS011;9381;54.244;10.074;2022-09-09T10:56:07;4.27;;;3.07;;
18503;SDS011;9381;54.244;10.074;2022-09-09T11:01:33;2.70;;;1.53;;
18503;SDS011;9381;54.244;10.074;2022-09-09T11:06:38;3.17;;;1.47;;
18503;SDS011;9381;54.244;10.074;2022-09-09T11:11:52;4.73;;;1.97;;
18503;SDS011;9381;54.244;10.074;2022-09-09T11:27:35;2.70;;;2.00;;
18503;SDS011;9381;54.244;10.074;2022-09-09T11:32:57;3.87;;;1.60;;
18503;SDS011;9381;54.244;10.074;2022-09-09T11:38:24;3.23;;;1.40;;
18503;SDS011;9381;54.244;10.074;2022-09-09T11:43:28;1.63;;;1.03;;
18503;SDS011;9381;54.244;10.074;2022-09-09T11:53:52;5.70;;;1.30;;
18503;SDS011;9381;54.244;10.074;2022-09-09T11:58:56;3.90;;;1.27;;
18503;SDS011;9381;54.244;10.074;2022-09-09T12:04:21;2.03;;;1.07;;
18503;SDS011;9381;54.244;10.074;2022-09-09T12:14:55;3.47;;;1.60;;
18503;SDS011;9381;54.244;10.074;2022-09-09T12:30:51;4.10;;;1.07;;
18503;SDS011;9381;54.244;10.074;2022-09-09T12:36:02;3.30;;;1.10;;
18503;SDS011;9381;54.244;10.074;2022-09-09T12:41:04;2.13;;;0.90;;
18503;SDS011;9381;54.244;10.074;2022-09-09T12:46:08;2.10;;;1.07;;
18503;SDS011;9381;54.244;10.074;2022-09-09T12:51:17;4.10;;;1.07;;
18503;SDS011;9381;54.244;10.074;2022-09-09T12:56:22;4.20;;;1.23;;
18503;SDS011;9381;54.244;10.074;2022-09-09T13:01:28;4.00;;;1.10;;
18503;SDS011;9381;54.244;10.074;2022-09-09T13:06:33;2.90;;;1.20;;
18503;SDS011;9381;54.244;10.074;2022-09-09T13:11:36;6.30;;;1.80;;
18503;SDS011;9381;54.244;10.074;2022-09-09T13:16:40;4.20;;;1.50;;
18503;SDS011;9381;54.244;10.074;2022-09-09T13:21:40;1.33;;;0.93;;
18503;SDS011;9381;54.244;10.074;2022-09-09T13:26:40;4.33;;;1.10;;
18503;SDS011;9381;54.244;10.074;2022-09-09T13:31:42;3.13;;;1.40;;
18503;SDS011;9381;54.244;10.074;2022-09-09T13:36:46;3.40;;;1.43;;
18503;SDS011;9381;54.244;10.074;2022-09-09T13:41:48;3.83;;;1.90;;
18503;SDS011;9381;54.244;10.074;2022-09-09T13:46:59;2.30;;;1.37;;
18503;SDS011;9381;54.244;10.074;2022-09-09T13:57:18;3.63;;;1.30;;
18503;SDS011;9381;54.244;10.074;2022-09-09T14:02:20;4.47;;;1.90;;
18503;SDS011;9381;54.244;10.074;2022-09-09T14:07:23;3.10;;;1.40;;
18503;SDS011;9381;54.244;10.074;2022-09-09T14:12:23;3.27;;;1.20;;
18503;SDS011;9381;54.244;10.074;2022-09-09T14:17:24;7.63;;;1.47;;
18503;SDS011;9381;54.244;10.074;2022-09-09T14:22:25;4.27;;;1.70;;
18503;SDS011;9381;54.244;10.074;2022-09-09T14:27:25;5.53;;;2.00;;
18503;SDS011;9381;54.244;10.074;2022-09-09T14:32:26;1.80;;;1.70;;
18503;SDS011;9381;54.244;10.074;2022-09-09T14:37:27;6.40;;;1.97;;
18503;SDS011;9381;54.244;10.074;2022-09-09T14:42:28;2.77;;;1.40;;
18503;SDS011;9381;54.244;10.074;2022-09-09T14:47:30;5.57;;;2.30;;
18503;SDS011;9381;54.244;10.074;2022-09-09T14:52:30;3.45;;;1.63;;
18503;SDS011;9381;54.244;10.074;2022-09-09T14:57:30;8.33;;;2.23;;
18503;SDS011;9381;54.244;10.074;2022-09-09T15:02:31;8.10;;;2.90;;
18503;SDS011;9381;54.244;10.074;2022-09-09T15:07:31;9.43;;;3.60;;
18503;SDS011;9381;54.244;10.074;2022-09-09T15:12:32;8.60;;;4.73;;
18503;SDS011;9381;54.244;10.074;2022-09-09T15:17:33;4.07;;;2.90;;
18503;SDS011;9381;54.244;10.074;2022-09-09T15:22:33;4.57;;;2.55;;
18503;SDS011;9381;54.244;10.074;2022-09-09T15:27:34;3.67;;;1.70;;
18503;SDS011;9381;54.244;10.074;2022-09-09T15:32:34;3.63;;;1.73;;
18503;SDS011;9381;54.244;10.074;2022-09-09T15:37:35;1.97;;;1.30;;
18503;SDS011;9381;54.244;10.074;2022-09-09T15:42:35;3.70;;;1.20;;
18503;SDS011;9381;54.244;10.074;2022-09-09T15:47:36;3.20;;;1.17;;
18503;SDS011;9381;54.244;10.074;2022-09-09T15:52:36;3.50;;;1.20;;
18503;SDS011;9381;54.244;10.074;2022-09-09T15:57:36;2.03;;;1.30;;
18503;SDS011;9381;54.244;10.074;2022-09-09T16:02:37;3.00;;;1.50;;
18503;SDS011;9381;54.244;10.074;2022-09-09T16:07:37;3.97;;;1.67;;
18503;SDS011;9381;54.244;10.074;2022-09-09T16:12:37;2.47;;;1.40;;
18503;SDS011;9381;54.244;10.074;2022-09-09T16:17:39;2.77;;;1.50;;
18503;SDS011;9381;54.244;10.074;2022-09-09T16:22:39;1.50;;;1.40;;
18503;SDS011;9381;54.244;10.074;2022-09-09T16:27:40;2.97;;;1.43;;
18503;SDS011;9381;54.244;10.074;2022-09-09T16:32:40;1.57;;;1.00;;
18503;SDS011;9381;54.244;10.074;2022-09-09T16:37:41;2.08;;;1.20;;
18503;SDS011;9381;54.244;10.074;2022-09-09T16:42:42;6.93;;;1.40;;
18503;SDS011;9381;54.244;10.074;2022-09-09T16:47:43;2.33;;;1.20;;
18503;SDS011;9381;54.244;10.074;2022-09-09T16:52:44;2.20;;;1.10;;
18503;SDS011;9381;54.244;10.074;2022-09-09T16:57:45;4.97;;;1.20;;
18503;SDS011;9381;54.244;10.074;2022-09-09T17:02:45;1.83;;;1.00;;
18503;SDS011;9381;54.244;10.074;2022-09-09T17:07:45;1.30;;;1.20;;
18503;SDS011;9381;54.244;10.074;2022-09-09T17:12:45;2.23;;;1.70;;
18503;SDS011;9381;54.244;10.074;2022-09-09T17:17:46;2.73;;;2.10;;
18503;SDS011;9381;54.244;10.074;2022-09-09T17:22:49;4.87;;;1.90;;
18503;SDS011;9381;54.244;10.074;2022-09-09T17:27:49;2.70;;;1.60;;
18503;SDS011;9381;54.244;10.074;2022-09-09T17:32:50;2.50;;;1.80;;
18503;SDS011;9381;54.244;10.074;2022-09-09T17:37:52;3.20;;;2.27;;
18503;SDS011;9381;54.244;10.074;2022-09-09T17:42:53;2.93;;;1.77;;
18503;SDS011;9381;54.244;10.074;2022-09-09T17:47:54;2.40;;;2.20;;
18503;SDS011;9381;54.244;10.074;2022-09-09T17:52:54;3.80;;;2.20;;
18503;SDS011;9381;54.244;10.074;2022-09-09T17:57:56;3.80;;;2.30;;
18503;SDS011;9381;54.244;10.074;2022-09-09T18:02:56;2.57;;;2.10;;
18503;SDS011;9381;54.244;10.074;2022-09-09T18:07:57;2.20;;;1.97;;
18503;SDS011;9381;54.244;10.074;2022-09-09T18:12:57;2.80;;;2.07;;
18503;SDS011;9381;54.244;10.074;2022-09-09T18:18:00;2.83;;;2.13;;
18503;SDS011;9381;54.244;10.074;2022-09-09T18:23:02;2.23;;;2.13;;
18503;SDS011;9381;54.244;10.074;2022-09-09T18:28:02;2.13;;;1.93;;
18503;SDS011;9381;54.244;10.074;2022-09-09T18:33:03;2.23;;;2.00;;
18503;SDS011;9381;54.244;10.074;2022-09-09T18:38:03;4.30;;;2.10;;
18503;SDS011;9381;54.244;10.074;2022-09-09T18:43:03;2.57;;;2.37;;
18503;SDS011;9381;54.244;10.074;2022-09-09T18:48:04;3.23;;;2.90;;
18503;SDS011;9381;54.244;10.074;2022-09-09T18:53:05;5.53;;;3.70;;
18503;SDS011;9381;54.244;10.074;2022-09-09T18:58:05;4.00;;;3.60;;
18503;SDS011;9381;54.244;10.074;2022-09-09T19:03:06;4.77;;;3.93;;
18503;SDS011;9381;54.244;10.074;2022-09-09T19:08:06;4.90;;;3.10;;
18503;SDS011;9381;54.244;10.074;2022-09-09T19:13:06;4.80;;;3.70;;
18503;SDS011;9381;54.244;10.074;2022-09-09T19:18:06;3.70;;;3.33;;
18503;SDS011;9381;54.244;10.074;2022-09-09T19:23:07;3.77;;;3.33;;
18503;SDS011;9381;54.244;10.074;2022-09-09T19:28:07;4.90;;;3.90;;
18503;SDS011;9381;54.244;10.074;2022-09-09T19:33:07;3.70;;;3.40;;
18503;SDS011;9381;54.244;10.074;2022-09-09T19:38:08;3.67;;;3.37;;
18503;SDS011;9381;54.244;10.074;2022-09-09T19:43:08;5.05;;;4.20;;
18503;SDS011;9381;54.244;10.074;2022-09-09T19:48:08;6.32;;;4.40;;
18503;SDS011;9381;54.244;10.074;2022-09-09T19:53:08;9.15;;;5.25;;
18503;SDS011;9381;54.244;10.074;2022-09-09T19:58:09;5.30;;;4.57;;
18503;SDS011;9381;54.244;10.074;2022-09-09T20:03:09;5.25;;;4.68;;
18503;SDS011;9381;54.244;10.074;2022-09-09T20:08:09;6.13;;;4.00;;
18503;SDS011;9381;54.244;10.074;2022-09-09T20:13:10;6.00;;;4.20;;
18503;SDS011;9381;54.244;10.074;2022-09-09T20:18:11;5.47;;;4.50;;
18503;SDS011;9381;54.244;10.074;2022-09-09T20:23:12;6.57;;;4.77;;
18503;SDS011;9381;54.244;10.074;2022-09-09T20:28:12;7.23;;;5.17;;
18503;SDS011;9381;54.244;10.074;2022-09-09T20:33:13;7.97;;;5.70;;
18503;SDS011;9381;54.244;10.074;2022-09-09T20:38:16;5.77;;;4.43;;
18503;SDS011;9381;54.244;10.074;2022-09-09T20:43:16;7.00;;;5.75;;
18503;SDS011;9381;54.244;10.074;2022-09-09T20:48:19;8.43;;;7.33;;
18503;SDS011;9381;54.244;10.074;2022-09-09T20:53:20;8.60;;;7.67;;
18503;SDS011;9381;54.244;10.074;2022-09-09T20:58:23;7.37;;;6.67;;
18503;SDS011;9381;54.244;10.074;2022-09-09T21:03:23;12.50;;;7.33;;
18503;SDS011;9381;54.244;10.074;2022-09-09T21:08:24;8.97;;;8.13;;
18503;SDS011;9381;54.244;10.074;2022-09-09T21:13:29;9.63;;;8.30;;
18503;SDS011;9381;54.244;10.074;2022-09-09T21:18:32;11.40;;;8.67;;
18503;SDS011;9381;54.244;10.074;2022-09-09T21:23:33;9.37;;;8.47;;
18503;SDS011;9381;54.244;10.074;2022-09-09T21:28:34;10.20;;;9.20;;
18503;SDS011;9381;54.244;10.074;2022-09-09T21:33:35;9.73;;;8.40;;
18503;SDS011;9381;54.244;10.074;2022-09-09T21:38:36;9.53;;;8.73;;
18503;SDS011;9381;54.244;10.074;2022-09-09T21:43:39;11.20;;;8.50;;
18503;SDS011;9381;54.244;10.074;2022-09-09T21:48:43;10.23;;;9.17;;
18503;SDS011;9381;54.244;10.074;2022-09-09T21:53:44;10.27;;;8.87;;
18503;SDS011;9381;54.244;10.074;2022-09-09T21:58:44;8.60;;;7.80;;
18503;SDS011;9381;54.244;10.074;2022-09-09T22:03:46;9.50;;;8.50;;
18503;SDS011;9381;54.244;10.074;2022-09-09T22:08:46;8.77;;;7.97;;
18503;SDS011;9381;54.244;10.074;2022-09-09T22:13:46;9.02;;;8.13;;
18503;SDS011;9381;54.244;10.074;2022-09-09T22:18:52;8.60;;;7.30;;
18503;SDS011;9381;54.244;10.074;2022-09-09T22:23:55;9.73;;;6.40;;
18503;SDS011;9381;54.244;10.074;2022-09-09T22:28:57;8.60;;;7.80;;
18503;SDS011;9381;54.244;10.074;2022-09-09T22:33:58;7.03;;;6.37;;
18503;SDS011;9381;54.244;10.074;2022-09-09T22:38:58;8.03;;;7.23;;
18503;SDS011;9381;54.244;10.074;2022-09-09T22:43:59;6.83;;;6.13;;
18503;SDS011;9381;54.244;10.074;2022-09-09T22:49:00;8.13;;;7.40;;
18503;SDS011;9381;54.244;10.074;2022-09-09T22:54:03;7.07;;;6.37;;
18503;SDS011;9381;54.244;10.074;2022-09-09T22:59:04;7.63;;;6.77;;
18503;SDS011;9381;54.244;10.074;2022-09-09T23:04:04;8.23;;;7.18;;
18503;SDS011;9381;54.244;10.074;2022-09-09T23:09:04;7.97;;;6.63;;
18503;SDS011;9381;54.244;10.074;2022-09-09T23:14:05;7.90;;;7.07;;
18503;SDS011;9381;54.244;10.074;2022-09-09T23:19:09;7.97;;;6.70;;
18503;SDS011;9381;54.244;10.074;2022-09-09T23:24:15;7.70;;;6.33;;
18503;SDS011;9381;54.244;10.074;2022-09-09T23:29:16;8.20;;;7.30;;
18503;SDS011;9381;54.244;10.074;2022-09-09T23:34:18;6.53;;;5.93;;
18503;SDS011;9381;54.244;10.074;2022-09-09T23:39:18;10.60;;;6.50;;
18503;SDS011;9381;54.244;10.074;2022-09-09T23:44:18;6.88;;;6.20;;
18503;SDS011;9381;54.244;10.074;2022-09-09T23:49:18;7.33;;;6.63;;
18503;SDS011;9381;54.244;10.074;2022-09-09T23:54:19;9.10;;;7.00;;
18503;SDS011;9381;54.244;10.074;2022-09-09T23:59:19;8.25;;;5.85;;
